createdAt,value
2023-02-02T00:01:34.020Z,2.90
2023-02-02T00:04:00.896Z,3.58
2023-02-02T00:06:29.586Z,3.15
2023-02-02T00:08:58.039Z,4.00
2023-02-02T00:11:25.317Z,4.00
2023-02-02T00:13:52.826Z,3.20
2023-02-02T00:16:28.667Z,2.95
2023-02-02T00:18:58.058Z,2.60
2023-02-02T00:21:25.398Z,3.10
2023-02-02T00:23:52.604Z,3.33
2023-02-02T00:26:20.274Z,2.85
2023-02-02T00:28:47.946Z,3.13
2023-02-02T00:31:14.858Z,3.25
2023-02-02T00:33:49.711Z,2.53
2023-02-02T00:36:18.033Z,3.30
2023-02-02T00:38:45.526Z,2.58
2023-02-02T00:41:12.349Z,2.70
2023-02-02T00:43:39.108Z,3.35
2023-02-02T00:46:09.554Z,2.88
2023-02-02T00:48:36.383Z,3.20
2023-02-02T00:51:03.176Z,2.30
2023-02-02T00:53:30.025Z,2.70
2023-02-02T00:55:56.836Z,3.08
2023-02-02T00:58:23.696Z,3.13
2023-02-02T01:00:50.428Z,3.20
2023-02-02T01:03:17.383Z,2.70
2023-02-02T01:05:44.207Z,3.05
2023-02-02T01:08:11.144Z,3.65
2023-02-02T01:10:37.931Z,3.00
2023-02-02T01:13:05.363Z,2.40
2023-02-02T01:15:32.311Z,3.30
2023-02-02T01:17:59.069Z,2.33
2023-02-02T01:20:25.958Z,3.80
2023-02-02T01:22:52.951Z,2.80
2023-02-02T01:25:20.129Z,2.80
2023-02-02T01:27:47.028Z,2.67
2023-02-02T01:30:14.282Z,2.70
2023-02-02T01:32:41.104Z,2.40
2023-02-02T01:35:08.105Z,3.03
2023-02-02T01:37:34.855Z,3.05
2023-02-02T01:40:01.638Z,2.88
2023-02-02T01:42:28.386Z,2.40
2023-02-02T01:45:07.287Z,1.95
2023-02-02T01:47:41.468Z,3.17
2023-02-02T01:50:10.354Z,3.20
2023-02-02T01:52:38.705Z,2.60
2023-02-02T01:55:11.601Z,2.42
2023-02-02T01:57:43.227Z,2.00
2023-02-02T02:00:13.493Z,2.67
2023-02-02T02:02:44.063Z,2.55
2023-02-02T02:05:12.056Z,2.05
2023-02-02T02:07:43.535Z,2.00
2023-02-02T02:10:10.918Z,2.45
2023-02-02T02:12:37.663Z,2.33
2023-02-02T02:15:23.905Z,2.95
2023-02-02T02:18:05.835Z,2.70
2023-02-02T02:21:19.023Z,2.60
2023-02-02T02:24:39.215Z,2.00
2023-02-02T02:27:33.702Z,1.73
2023-02-02T02:30:20.968Z,2.33
2023-02-02T02:33:06.731Z,1.70
2023-02-02T02:35:41.497Z,1.80
2023-02-02T02:38:29.789Z,1.80
2023-02-02T02:41:01.277Z,1.63
2023-02-02T02:43:35.311Z,2.08
2023-02-02T02:46:03.758Z,1.60
2023-02-02T02:48:30.632Z,1.70
2023-02-02T02:51:44.927Z,1.60
2023-02-02T02:54:14.689Z,1.70
2023-02-02T02:57:17.979Z,1.60
2023-02-02T03:00:35.348Z,2.30
2023-02-02T03:03:22.142Z,2.17
2023-02-02T03:06:13.073Z,1.88
2023-02-02T03:08:58.580Z,2.70
2023-02-02T03:11:25.589Z,2.22
2023-02-02T03:13:52.726Z,2.42
2023-02-02T03:16:19.478Z,2.35
2023-02-02T03:18:46.270Z,2.67
2023-02-02T03:21:13.094Z,2.67
2023-02-02T03:23:40.167Z,2.55
2023-02-02T03:26:07.401Z,3.22
2023-02-02T03:28:34.887Z,2.65
2023-02-02T03:31:02.313Z,2.97
2023-02-02T03:33:31.082Z,2.20
2023-02-02T03:35:57.812Z,2.83
2023-02-02T03:38:24.602Z,2.80
2023-02-02T03:40:52.131Z,2.78
2023-02-02T03:43:23.547Z,2.30
2023-02-02T03:46:02.107Z,3.30
2023-02-02T03:48:28.948Z,2.80
2023-02-02T03:50:55.852Z,2.40
2023-02-02T03:53:23.400Z,2.80
2023-02-02T03:55:50.614Z,2.47
2023-02-02T03:58:17.718Z,2.90
2023-02-02T04:00:44.467Z,2.10
2023-02-02T04:03:11.289Z,2.95
2023-02-02T04:05:38.039Z,2.28
2023-02-02T04:08:05.343Z,2.88
2023-02-02T04:10:32.135Z,1.60
2023-02-02T04:12:58.948Z,2.00
2023-02-02T04:15:25.951Z,1.92
2023-02-02T04:17:52.959Z,2.10
2023-02-02T04:20:19.983Z,2.42
2023-02-02T04:22:46.777Z,2.67
2023-02-02T04:25:13.548Z,3.03
2023-02-02T04:27:40.359Z,2.78
2023-02-02T04:30:07.700Z,2.67
2023-02-02T04:32:34.478Z,1.73
2023-02-02T04:35:01.233Z,2.35
2023-02-02T04:37:30.407Z,2.28
2023-02-02T04:39:57.289Z,1.98
2023-02-02T04:42:24.072Z,1.98
2023-02-02T04:44:50.905Z,2.50
2023-02-02T04:47:17.797Z,2.13
2023-02-02T04:49:44.553Z,3.20
2023-02-02T04:52:12.066Z,2.38
2023-02-02T04:54:38.824Z,2.55
2023-02-02T04:57:05.547Z,2.42
2023-02-02T04:59:32.335Z,2.90
2023-02-02T05:02:02.856Z,1.67
2023-02-02T05:04:29.713Z,1.98
2023-02-02T05:06:56.602Z,2.28
2023-02-02T05:09:23.464Z,2.75
2023-02-02T05:11:50.511Z,1.90
2023-02-02T05:14:18.501Z,2.40
2023-02-02T05:16:45.454Z,1.65
2023-02-02T05:19:12.910Z,1.85
2023-02-02T05:21:39.649Z,1.52
2023-02-02T05:24:06.612Z,2.40
2023-02-02T05:26:33.478Z,2.30
2023-02-02T05:29:00.281Z,1.80
2023-02-02T05:31:27.220Z,1.83
2023-02-02T05:33:54.018Z,1.80
2023-02-02T05:36:20.793Z,1.85
2023-02-02T05:38:47.759Z,2.85
2023-02-02T05:41:14.614Z,2.00
2023-02-02T05:43:41.477Z,2.22
2023-02-02T05:46:08.262Z,1.55
2023-02-02T05:48:35.065Z,1.77
2023-02-02T05:51:04.938Z,1.60
2023-02-02T05:53:32.174Z,1.58
2023-02-02T05:55:59.644Z,1.80
2023-02-02T05:58:28.167Z,1.95
2023-02-02T06:00:56.839Z,2.20
2023-02-02T06:03:24.218Z,1.25
2023-02-02T06:05:51.146Z,1.63
2023-02-02T06:08:17.964Z,1.58
2023-02-02T06:10:44.802Z,2.40
2023-02-02T06:13:11.904Z,2.05
2023-02-02T06:15:38.747Z,1.40
2023-02-02T06:18:08.568Z,2.00
2023-02-02T06:20:36.005Z,2.63
2023-02-02T06:23:02.889Z,1.75
2023-02-02T06:25:29.673Z,2.03
2023-02-02T06:28:00.848Z,2.33
2023-02-02T06:30:28.046Z,1.73
2023-02-02T06:32:55.528Z,2.30
2023-02-02T06:35:22.855Z,2.38
2023-02-02T06:37:50.012Z,1.92
2023-02-02T06:40:17.248Z,2.15
2023-02-02T06:42:44.004Z,1.98
2023-02-02T06:45:11.247Z,2.17
2023-02-02T06:47:38.080Z,1.90
2023-02-02T06:50:04.998Z,1.60
2023-02-02T06:52:31.839Z,1.75
2023-02-02T06:54:58.716Z,1.75
2023-02-02T06:57:25.594Z,1.20
2023-02-02T06:59:52.476Z,2.20
2023-02-02T07:02:19.342Z,1.60
2023-02-02T07:04:46.296Z,2.38
2023-02-02T07:07:13.011Z,1.60
2023-02-02T07:09:40.053Z,1.85
2023-02-02T07:12:06.886Z,1.95
2023-02-02T07:14:33.681Z,2.00
2023-02-02T07:17:00.531Z,1.95
2023-02-02T07:19:27.359Z,1.73
2023-02-02T07:21:54.227Z,2.05
2023-02-02T07:24:21.065Z,2.15
2023-02-02T07:26:47.961Z,1.98
2023-02-02T07:29:15.077Z,2.28
2023-02-02T07:31:42.180Z,2.42
2023-02-02T07:34:09.018Z,2.47
2023-02-02T07:36:36.147Z,2.42
2023-02-02T07:39:05.005Z,2.33
2023-02-02T07:41:33.771Z,2.33
2023-02-02T07:44:00.636Z,2.65
2023-02-02T07:46:27.701Z,2.35
2023-02-02T07:48:55.722Z,1.77
2023-02-02T07:51:23.141Z,3.15
2023-02-02T07:53:52.957Z,2.30
2023-02-02T07:56:25.485Z,3.20
2023-02-02T07:58:54.298Z,2.03
2023-02-02T08:01:23.223Z,2.35
2023-02-02T08:03:50.910Z,1.83
2023-02-02T08:06:18.975Z,2.58
2023-02-02T08:08:47.055Z,2.67
2023-02-02T08:11:16.015Z,2.03
2023-02-02T08:13:43.421Z,2.40
2023-02-02T08:16:11.293Z,1.90
2023-02-02T08:18:38.831Z,2.70
2023-02-02T08:21:08.571Z,2.33
2023-02-02T08:23:36.756Z,2.60
2023-02-02T08:26:10.954Z,1.83
2023-02-02T08:28:39.046Z,1.60
2023-02-02T08:31:11.118Z,1.85
2023-02-02T08:33:39.552Z,1.50
2023-02-02T08:36:12.154Z,2.13
2023-02-02T08:38:39.242Z,1.52
2023-02-02T08:41:10.985Z,1.40
2023-02-02T08:43:38.400Z,1.40
2023-02-02T08:46:06.872Z,1.58
2023-02-02T08:48:35.504Z,1.55
2023-02-02T08:51:03.295Z,2.25
2023-02-02T08:53:30.573Z,1.40
2023-02-02T08:56:04.556Z,1.75
2023-02-02T08:58:33.827Z,2.22
2023-02-02T09:01:22.485Z,1.52
2023-02-02T09:03:53.021Z,2.42
2023-02-02T09:06:21.246Z,1.30
2023-02-02T09:08:48.396Z,1.60
2023-02-02T09:11:20.097Z,1.85
2023-02-02T09:13:51.730Z,1.83
2023-02-02T09:16:19.196Z,1.55
2023-02-02T09:18:46.354Z,1.90
2023-02-02T09:21:15.263Z,1.42
2023-02-02T09:23:43.426Z,1.85
2023-02-02T09:26:22.570Z,1.35
2023-02-02T09:28:54.804Z,2.50
2023-02-02T09:31:22.960Z,2.30
2023-02-02T09:33:49.825Z,2.40
2023-02-02T09:36:26.971Z,2.22
2023-02-02T09:38:53.961Z,2.95
2023-02-02T09:41:35.708Z,2.33
2023-02-02T09:44:33.692Z,2.58
2023-02-02T09:47:21.654Z,2.60
2023-02-02T09:50:17.825Z,1.63
2023-02-02T09:53:09.392Z,2.03
2023-02-02T09:55:45.149Z,2.25
2023-02-02T09:58:16.121Z,1.52
2023-02-02T10:01:07.332Z,1.95
2023-02-02T10:03:50.306Z,1.77
2023-02-02T10:06:40.697Z,1.90
2023-02-02T10:09:26.465Z,1.75
2023-02-02T10:12:17.292Z,2.10
2023-02-02T10:15:13.211Z,1.85
2023-02-02T10:17:48.775Z,2.38
2023-02-02T10:20:29.118Z,2.38
2023-02-02T10:23:04.189Z,2.10
2023-02-02T10:25:32.505Z,2.20
2023-02-02T10:28:18.387Z,1.90
2023-02-02T10:30:50.553Z,2.15
2023-02-02T10:33:39.288Z,2.25
2023-02-02T10:36:12.100Z,2.45
2023-02-02T10:38:53.933Z,2.70
2023-02-02T10:41:33.570Z,2.40
2023-02-02T10:44:22.497Z,2.10
2023-02-02T10:46:53.808Z,2.35
2023-02-02T10:49:39.426Z,2.30
2023-02-02T10:52:16.237Z,2.20
2023-02-02T10:54:57.105Z,2.55
2023-02-02T10:57:50.106Z,2.40
2023-02-02T11:00:23.533Z,1.90
2023-02-02T11:02:52.860Z,2.25
2023-02-02T11:05:44.521Z,2.70
2023-02-02T11:08:18.751Z,2.08
2023-02-02T11:10:47.504Z,1.90
2023-02-02T11:13:30.518Z,1.75
2023-02-02T11:16:15.471Z,2.08
2023-02-02T11:18:44.373Z,1.58
2023-02-02T11:21:28.752Z,1.63
2023-02-02T11:24:01.014Z,1.55
2023-02-02T11:26:47.475Z,1.50
2023-02-02T11:29:21.691Z,1.70
2023-02-02T11:31:48.780Z,1.45
2023-02-02T11:34:25.692Z,1.90
2023-02-02T11:37:22.266Z,1.50
2023-02-02T11:39:49.024Z,1.50
2023-02-02T11:42:22.120Z,1.30
2023-02-02T11:44:51.780Z,1.70
2023-02-02T11:47:33.272Z,1.90
2023-02-02T11:50:04.702Z,1.48
2023-02-02T11:52:33.865Z,1.98
2023-02-02T11:55:09.212Z,1.60
2023-02-02T11:57:36.112Z,2.40
2023-02-02T12:00:12.013Z,2.30
2023-02-02T12:02:47.039Z,2.63
2023-02-02T12:05:35.611Z,2.88
2023-02-02T12:08:02.676Z,2.72
2023-02-02T12:11:03.088Z,3.05
2023-02-02T12:13:45.097Z,3.00
2023-02-02T12:16:17.803Z,3.10
2023-02-02T12:19:07.502Z,3.08
2023-02-02T12:21:41.916Z,3.80
2023-02-02T12:24:31.684Z,3.58
2023-02-02T12:27:23.481Z,3.40
2023-02-02T12:30:13.664Z,3.10
2023-02-02T12:33:10.084Z,3.40
2023-02-02T12:35:48.259Z,3.30
2023-02-02T12:38:30.808Z,3.65
2023-02-02T12:41:35.375Z,3.58
2023-02-02T12:44:11.200Z,3.20
2023-02-02T12:47:05.221Z,3.15
2023-02-02T12:50:12.691Z,3.20
2023-02-02T12:52:45.196Z,3.85
2023-02-02T12:55:24.163Z,3.30
2023-02-02T12:58:09.256Z,3.17
2023-02-02T13:00:57.409Z,3.55
2023-02-02T13:03:51.242Z,2.70
2023-02-02T13:06:32.614Z,2.30
2023-02-02T13:09:13.410Z,2.67
2023-02-02T13:11:51.714Z,2.17
2023-02-02T13:14:35.591Z,2.25
2023-02-02T13:17:29.030Z,1.90
2023-02-02T13:20:05.477Z,1.92
2023-02-02T13:22:42.208Z,2.03
2023-02-02T13:25:28.574Z,1.48
2023-02-02T13:27:56.634Z,1.30
2023-02-02T13:30:31.970Z,1.60
2023-02-02T13:33:03.028Z,1.48
2023-02-02T13:36:00.731Z,1.30
2023-02-02T13:38:42.265Z,1.50
2023-02-02T13:41:13.449Z,1.65
2023-02-02T13:44:01.721Z,1.60
2023-02-02T13:46:49.751Z,1.40
2023-02-02T13:49:43.091Z,1.50
2023-02-02T13:52:18.822Z,1.85
2023-02-02T13:55:30.387Z,1.40
2023-02-02T13:58:17.737Z,1.60
2023-02-02T14:00:54.015Z,1.63
2023-02-02T14:03:32.349Z,1.70
2023-02-02T14:06:17.189Z,1.40
2023-02-02T14:09:01.577Z,1.65
2023-02-02T14:11:42.507Z,1.33
2023-02-02T14:14:34.891Z,1.27
2023-02-02T14:17:33.404Z,1.58
2023-02-02T14:20:02.423Z,1.50
2023-02-02T14:23:01.185Z,1.83
2023-02-02T14:25:33.807Z,1.75
2023-02-02T14:28:03.070Z,1.90
2023-02-02T14:30:40.000Z,1.42
2023-02-02T14:33:37.214Z,2.10
2023-02-02T14:36:05.446Z,1.60
2023-02-02T14:38:54.920Z,1.40
2023-02-02T14:42:01.527Z,1.55
2023-02-02T14:44:28.806Z,2.13
2023-02-02T14:46:55.782Z,2.22
2023-02-02T14:49:26.361Z,1.95
2023-02-02T14:52:01.554Z,2.00
2023-02-02T14:54:37.459Z,1.90
2023-02-02T14:57:28.335Z,2.17
2023-02-02T14:59:58.668Z,2.38
2023-02-02T15:02:34.738Z,2.55
2023-02-02T15:05:39.087Z,1.50
2023-02-02T15:08:23.204Z,1.90
2023-02-02T15:10:54.075Z,2.00
2023-02-02T15:13:52.004Z,1.48
2023-02-02T15:16:28.493Z,1.60
2023-02-02T15:19:07.084Z,1.92
2023-02-02T15:21:37.625Z,1.77
2023-02-02T15:24:06.070Z,1.58
2023-02-02T15:26:42.852Z,1.60
2023-02-02T15:29:37.578Z,1.38
2023-02-02T15:32:07.199Z,1.73
2023-02-02T15:34:46.641Z,1.80
2023-02-02T15:37:21.609Z,1.55
2023-02-02T15:39:52.717Z,1.50
2023-02-02T15:42:41.623Z,1.38
2023-02-02T15:45:28.406Z,1.00
2023-02-02T15:47:57.785Z,0.77
2023-02-02T15:50:25.108Z,0.85
2023-02-02T15:52:53.835Z,0.60
2023-02-02T15:55:30.119Z,0.75
2023-02-02T15:57:56.946Z,0.60
2023-02-02T16:00:32.710Z,1.25
2023-02-02T16:03:19.294Z,0.60
2023-02-02T16:05:49.960Z,0.95
2023-02-02T16:08:29.853Z,1.20
2023-02-02T16:11:17.245Z,0.82
2023-02-02T16:14:02.188Z,0.80
2023-02-02T16:16:35.212Z,0.60
2023-02-02T16:19:16.416Z,0.95
2023-02-02T16:21:55.040Z,1.00
2023-02-02T16:24:35.003Z,1.02
2023-02-02T16:27:06.483Z,1.42
2023-02-02T16:29:34.835Z,1.10
2023-02-02T16:32:02.085Z,1.10
2023-02-02T16:34:41.122Z,1.10
2023-02-02T16:37:22.497Z,1.42
2023-02-02T16:39:49.912Z,1.00
2023-02-02T16:42:28.714Z,1.20
2023-02-02T16:44:59.922Z,0.80
2023-02-02T16:47:26.703Z,1.50
2023-02-02T16:50:08.608Z,1.13
2023-02-02T16:52:56.545Z,1.20
2023-02-02T16:55:24.383Z,1.40
2023-02-02T16:57:52.161Z,1.50
2023-02-02T17:00:24.663Z,1.30
2023-02-02T17:03:00.151Z,1.90
2023-02-02T17:05:45.319Z,1.70
2023-02-02T17:08:12.220Z,1.80
2023-02-02T17:10:42.258Z,1.90
2023-02-02T17:13:36.543Z,1.95
2023-02-02T17:16:03.943Z,2.33
2023-02-02T17:18:30.695Z,2.40
2023-02-02T17:21:04.223Z,2.00
2023-02-02T17:23:32.148Z,2.08
2023-02-02T17:25:59.346Z,1.95
2023-02-02T17:28:27.259Z,2.20
2023-02-02T17:31:02.050Z,1.80
2023-02-02T17:33:29.138Z,1.80
2023-02-02T17:35:56.628Z,2.28
2023-02-02T17:38:24.917Z,2.08
2023-02-02T17:40:52.910Z,2.20
2023-02-02T17:43:19.742Z,2.22
2023-02-02T17:45:47.353Z,2.10
2023-02-02T17:48:14.849Z,2.13
2023-02-02T17:50:42.627Z,2.05
2023-02-02T17:53:15.159Z,2.25
2023-02-02T17:55:44.033Z,2.15
2023-02-02T17:58:14.437Z,2.33
2023-02-02T18:00:41.912Z,2.10
2023-02-02T18:03:27.296Z,2.50
2023-02-02T18:05:54.106Z,2.47
2023-02-02T18:08:20.991Z,2.65
2023-02-02T18:10:48.131Z,2.75
2023-02-02T18:13:17.576Z,2.10
2023-02-02T18:15:44.387Z,2.40
2023-02-02T18:18:14.322Z,2.20
2023-02-02T18:20:46.497Z,2.15
2023-02-02T18:23:14.861Z,2.20
2023-02-02T18:25:42.597Z,1.60
2023-02-02T18:28:10.821Z,2.20
2023-02-02T18:30:41.583Z,2.47
2023-02-02T18:33:17.485Z,2.50
2023-02-02T18:35:45.583Z,2.15
2023-02-02T18:38:13.137Z,2.38
2023-02-02T18:40:39.881Z,2.25
2023-02-02T18:43:06.724Z,4.22
2023-02-02T18:45:33.705Z,4.05
2023-02-02T18:48:00.522Z,3.13
2023-02-02T18:50:27.392Z,1.98
2023-02-02T18:52:54.462Z,2.67
2023-02-02T18:55:21.215Z,2.08
2023-02-02T18:57:48.154Z,2.10
2023-02-02T19:00:15.796Z,2.42
2023-02-02T19:02:42.578Z,2.40
2023-02-02T19:05:28.563Z,2.03
2023-02-02T19:07:55.566Z,3.05
2023-02-02T19:10:24.115Z,2.00
2023-02-02T19:13:13.686Z,2.00
2023-02-02T19:15:42.481Z,2.05
2023-02-02T19:18:19.217Z,1.60
2023-02-02T19:20:46.947Z,2.40
2023-02-02T19:23:19.586Z,1.73
2023-02-02T19:25:51.427Z,1.80
2023-02-02T19:28:24.300Z,1.52
2023-02-02T19:30:53.491Z,2.13
2023-02-02T19:33:21.071Z,1.83
2023-02-02T19:35:52.451Z,1.88
2023-02-02T19:38:20.714Z,1.67
2023-02-02T19:40:48.147Z,1.70
2023-02-02T19:43:21.070Z,1.60
2023-02-02T19:45:48.011Z,1.58
2023-02-02T19:48:27.695Z,1.52
2023-02-02T19:50:55.980Z,1.70
2023-02-02T19:53:34.767Z,1.50
2023-02-02T19:56:02.111Z,1.13
2023-02-02T19:58:37.460Z,1.75
2023-02-02T20:01:15.009Z,2.13
2023-02-02T20:03:43.343Z,1.70
2023-02-02T20:06:17.646Z,1.60
2023-02-02T20:08:44.510Z,1.63
2023-02-02T20:11:32.733Z,1.63
2023-02-02T20:14:19.109Z,1.38
2023-02-02T20:16:50.546Z,1.92
2023-02-02T20:19:21.649Z,1.58
2023-02-02T20:21:51.284Z,1.42
2023-02-02T20:24:40.672Z,1.70
2023-02-02T20:27:25.613Z,2.00
2023-02-02T20:29:54.166Z,1.80
2023-02-02T20:32:35.777Z,1.50
2023-02-02T20:35:22.051Z,2.05
2023-02-02T20:37:49.261Z,2.10
2023-02-02T20:40:24.205Z,1.70
2023-02-02T20:42:51.732Z,1.92
2023-02-02T20:45:19.152Z,1.48
2023-02-02T20:47:46.413Z,1.42
2023-02-02T20:50:16.192Z,1.27
2023-02-02T20:52:43.074Z,1.48
2023-02-02T20:55:10.609Z,1.90
2023-02-02T20:57:38.682Z,1.42
2023-02-02T21:00:07.855Z,1.90
2023-02-02T21:02:34.956Z,1.75
2023-02-02T21:05:01.731Z,1.48
2023-02-02T21:07:28.702Z,1.83
2023-02-02T21:09:55.688Z,2.00
2023-02-02T21:12:25.579Z,1.63
2023-02-02T21:14:55.470Z,1.58
2023-02-02T21:17:22.446Z,1.80
2023-02-02T21:19:49.317Z,2.00
2023-02-02T21:22:16.079Z,1.70
2023-02-02T21:24:42.940Z,1.83
2023-02-02T21:27:10.078Z,2.00
2023-02-02T21:29:37.082Z,2.08
2023-02-02T21:32:04.550Z,2.20
2023-02-02T21:34:31.810Z,1.90
2023-02-02T21:36:59.185Z,2.15
2023-02-02T21:39:35.158Z,2.30
2023-02-02T21:42:07.710Z,2.60
2023-02-02T21:44:36.661Z,2.30
2023-02-02T21:47:07.122Z,2.63
2023-02-02T21:49:38.378Z,2.15
2023-02-02T21:52:15.584Z,2.67
2023-02-02T21:54:42.771Z,2.28
2023-02-02T21:57:21.755Z,2.22
2023-02-02T21:59:55.683Z,1.95
2023-02-02T22:02:31.654Z,2.55
2023-02-02T22:05:01.783Z,2.65
2023-02-02T22:07:28.876Z,2.05
2023-02-02T22:09:55.948Z,2.75
2023-02-02T22:12:28.522Z,2.20
2023-02-02T22:15:00.594Z,2.45
2023-02-02T22:17:41.787Z,2.90
2023-02-02T22:20:17.744Z,2.30
2023-02-02T22:22:50.172Z,3.20
2023-02-02T22:25:16.953Z,2.42
2023-02-02T22:27:48.630Z,2.13
2023-02-02T22:30:34.046Z,2.80
2023-02-02T22:33:00.890Z,2.70
2023-02-02T22:35:27.727Z,2.47
2023-02-02T22:37:54.620Z,2.15
2023-02-02T22:40:24.700Z,2.58
2023-02-02T22:42:53.841Z,2.45
2023-02-02T22:45:20.722Z,2.35
2023-02-02T22:47:47.843Z,2.47
2023-02-02T22:50:15.638Z,2.47
2023-02-02T22:52:43.222Z,2.05
2023-02-02T22:55:11.109Z,1.80
2023-02-02T22:57:38.317Z,2.45
2023-02-02T23:00:14.496Z,2.20
2023-02-02T23:02:42.202Z,2.45
2023-02-02T23:05:11.635Z,1.83
2023-02-02T23:07:39.624Z,2.00
2023-02-02T23:10:07.536Z,1.48
2023-02-02T23:12:34.985Z,1.70
2023-02-02T23:15:01.826Z,1.90
2023-02-02T23:17:28.642Z,1.90
2023-02-02T23:19:55.393Z,1.90
2023-02-02T23:22:22.178Z,1.95
2023-02-02T23:24:49.019Z,1.70
2023-02-02T23:27:15.951Z,1.55
2023-02-02T23:29:42.688Z,1.70
2023-02-02T23:32:09.482Z,2.00
2023-02-02T23:34:36.202Z,1.42
2023-02-02T23:37:02.961Z,2.00
2023-02-02T23:39:29.697Z,2.08
2023-02-02T23:41:56.456Z,2.40
2023-02-02T23:44:23.255Z,1.90
2023-02-02T23:46:50.893Z,1.98
2023-02-02T23:49:18.168Z,1.90
2023-02-02T23:51:45.127Z,1.90
2023-02-02T23:54:13.597Z,1.92
2023-02-02T23:56:41.733Z,1.90
2023-02-02T23:59:09.307Z,1.80
